Time;durP1;ratioP1;P1;durP2;ratioP2;P2;SDS_P1;SDS_P2;PMS_P1;PMS_P2;Temp;Humidity;BMP_temperature;BMP_pressure;BME280_temperature;BME280_humidity;BME280_pressure;Samples;Min_cycle;Max_cycle;Signal;HPM_P1;HPM_P2
2022/11/22 00:00:10;;;;;;;23.48;13.50;;;;;;;4.54;53.00;99953.38;4967670;28;99490;-70
2022/11/22 00:02:36;;;;;;;28.02;12.88;;;;;;;4.59;52.68;99951.53;4966425;28;99166;-70
2022/11/22 00:05:03;;;;;;;21.77;13.05;;;;;;;4.60;52.68;99948.00;4969414;28;96984;-70
2022/11/22 00:07:31;;;;;;;24.38;13.55;;;;;;;4.68;52.25;99946.06;4971717;28;96918;-71
2022/11/22 00:10:00;;;;;;;26.85;14.20;;;;;;;4.44;52.41;99941.41;4968746;28;98217;-71
2022/11/22 00:12:26;;;;;;;25.80;14.55;;;;;;;4.63;52.26;99943.56;4961615;28;98736;-70
2022/11/22 00:14:53;;;;;;;23.55;13.00;;;;;;;4.72;51.92;99929.41;4969079;28;96836;-69
2022/11/22 00:17:19;;;;;;;26.92;13.63;;;;;;;4.72;52.12;99939.88;4965535;28;96995;-69
2022/11/22 00:19:46;;;;;;;25.00;13.85;;;;;;;4.64;51.75;99934.81;4970540;28;98900;-70
2022/11/22 00:22:12;;;;;;;26.38;13.60;;;;;;;4.55;52.65;99929.78;4966145;28;98915;-69
2022/11/22 00:24:40;;;;;;;26.20;14.82;;;;;;;4.59;51.90;99930.59;4968379;28;98855;-69
2022/11/22 00:27:06;;;;;;;26.33;14.15;;;;;;;4.62;51.96;99918.28;4969625;28;97128;-70
2022/11/22 00:29:32;;;;;;;23.92;13.45;;;;;;;4.39;52.73;99911.00;4965855;28;98910;-69
2022/11/22 00:31:59;;;;;;;25.15;14.05;;;;;;;4.59;51.91;99915.75;4962554;28;99045;-70
2022/11/22 00:34:25;;;;;;;27.50;14.63;;;;;;;4.40;52.40;99914.44;4966441;28;96854;-69
2022/11/22 00:36:51;;;;;;;27.45;14.65;;;;;;;4.27;52.58;99908.66;4960856;28;98387;-69
2022/11/22 00:39:18;;;;;;;24.92;14.65;;;;;;;4.17;52.89;99904.53;4964080;28;98908;-69
2022/11/22 00:41:46;;;;;;;25.10;13.82;;;;;;;4.24;52.95;99907.88;4968391;28;99406;-69
2022/11/22 00:44:12;;;;;;;23.45;13.57;;;;;;;3.87;53.39;99913.06;4966399;28;96862;-69
2022/11/22 00:46:39;;;;;;;24.33;13.68;;;;;;;3.92;53.12;99913.81;4966688;28;96739;-70
2022/11/22 00:49:05;;;;;;;28.88;14.43;;;;;;;3.82;53.85;99909.66;4967198;28;99279;-70
2022/11/22 00:51:31;;;;;;;27.40;15.18;;;;;;;4.04;53.41;99910.06;4967101;28;98903;-68
2022/11/22 00:53:58;;;;;;;27.13;14.38;;;;;;;3.72;53.92;99918.59;4965901;28;97751;-69
2022/11/22 00:56:25;;;;;;;26.52;14.68;;;;;;;3.86;53.51;99911.34;4964402;28;96747;-69
2022/11/22 00:58:52;;;;;;;27.88;14.98;;;;;;;3.85;53.90;99909.63;4969042;28;98802;-70
2022/11/22 01:01:19;;;;;;;27.17;14.85;;;;;;;3.94;53.57;99914.63;4966414;28;99027;-69
2022/11/22 01:03:45;;;;;;;28.65;14.68;;;;;;;4.20;53.03;99909.69;4966202;28;97659;-69
2022/11/22 01:06:12;;;;;;;26.15;13.88;;;;;;;4.25;53.23;99900.00;4969163;28;97890;-69
2022/11/22 01:08:38;;;;;;;28.92;14.82;;;;;;;4.32;53.00;99905.94;4966253;28;98985;-69
2022/11/22 01:11:04;;;;;;;30.92;16.05;;;;;;;4.09;53.09;99901.22;4966699;28;99131;-71
2022/11/22 01:13:31;;;;;;;27.92;15.27;;;;;;;4.12;52.97;99900.31;4965548;28;97079;-70
2022/11/22 01:16:01;;;;;;;32.58;16.63;;;;;;;4.21;52.51;99893.09;4966958;28;97105;-69
2022/11/22 01:18:28;;;;;;;28.48;15.15;;;;;;;4.10;53.18;99897.72;4963300;28;100427;-70
2022/11/22 01:20:54;;;;;;;28.33;15.13;;;;;;;4.14;53.21;99898.50;4966862;28;98895;-70
2022/11/22 01:23:21;;;;;;;29.63;16.05;;;;;;;3.93;54.09;99894.63;4967813;28;96791;-70
2022/11/22 01:25:47;;;;;;;31.15;15.43;;;;;;;3.99;53.31;99899.72;4969013;28;96853;-71
2022/11/22 01:28:16;;;;;;;29.50;14.88;;;;;;;4.07;53.57;99899.56;4963341;28;99112;-71
2022/11/22 01:30:42;;;;;;;27.98;15.05;;;;;;;3.99;53.49;99889.28;4969499;28;99459;-69
2022/11/22 01:33:10;;;;;;;32.13;16.15;;;;;;;4.00;53.55;99897.06;4968922;28;97731;-69
2022/11/22 01:35:37;;;;;;;32.45;15.82;;;;;;;3.89;53.77;99891.22;4964805;28;97807;-69
2022/11/22 01:38:04;;;;;;;28.35;14.68;;;;;;;3.91;54.16;99896.41;4964410;28;99050;-69
2022/11/22 01:40:30;;;;;;;27.13;15.10;;;;;;;4.03;53.68;99901.38;4963378;28;98891;-71
2022/11/22 01:42:59;;;;;;;27.67;15.48;;;;;;;3.84;54.05;99906.16;4964096;28;96717;-69
2022/11/22 01:45:45;;;;;;;28.40;15.52;;;;;;;3.72;54.35;99902.94;4967645;28;97480;-70
2022/11/22 01:48:32;;;;;;;31.02;14.77;;;;;;;4.06;54.22;99897.84;4966618;28;98853;-69
2022/11/22 01:51:04;;;;;;;28.38;15.13;;;;;;;3.77;54.14;99908.91;4969224;28;98176;-69
2022/11/22 01:53:35;;;;;;;30.73;15.45;;;;;;;3.89;54.21;99900.81;4963943;28;98762;-69
2022/11/22 01:56:04;;;;;;;30.20;15.77;;;;;;;3.83;54.28;99900.94;4968582;28;96757;-69
2022/11/22 01:58:34;;;;;;;30.92;15.70;;;;;;;3.88;54.46;99904.31;4970867;28;99218;-70
2022/11/22 02:01:01;;;;;;;31.30;14.77;;;;;;;3.86;54.20;99906.97;4973671;28;98351;-69
2022/11/22 02:03:33;;;;;;;32.10;14.90;;;;;;;3.74;54.50;99901.16;4968936;28;96864;-70
2022/11/22 02:06:00;;;;;;;30.05;15.27;;;;;;;3.72;54.23;99906.41;4968266;28;97954;-70
2022/11/22 02:08:33;;;;;;;31.00;15.93;;;;;;;4.06;54.17;99901.31;4970655;28;98820;-69
2022/11/22 02:11:02;;;;;;;26.08;14.20;;;;;;;3.98;54.51;99893.63;4972182;28;99142;-69
2022/11/22 02:13:31;;;;;;;30.92;14.50;;;;;;;3.94;53.93;99891.09;4967364;28;96777;-69
2022/11/22 02:15:58;;;;;;;28.90;14.70;;;;;;;3.87;54.86;99893.00;4970875;28;96862;-69
2022/11/22 02:18:25;;;;;;;33.15;15.95;;;;;;;3.88;54.70;99896.47;4966890;28;99217;-70
2022/11/22 02:20:54;;;;;;;26.98;13.98;;;;;;;3.72;55.35;99895.97;4967296;28;98315;-70
2022/11/22 02:23:25;;;;;;;27.50;15.13;;;;;;;3.98;54.50;99896.25;4968813;28;99153;-70
2022/11/22 02:25:55;;;;;;;27.00;14.70;;;;;;;4.00;54.24;99889.22;4972805;28;98652;-69
2022/11/22 02:28:22;;;;;;;30.25;15.63;;;;;;;4.06;54.23;99882.16;4968886;28;99292;-70
2022/11/22 02:30:49;;;;;;;27.85;15.30;;;;;;;3.97;54.51;99881.47;4967501;28;98747;-69
2022/11/22 02:33:15;;;;;;;29.73;16.20;;;;;;;4.04;54.18;99863.88;4971608;28;97755;-70
2022/11/22 02:35:42;;;;;;;29.83;16.08;;;;;;;4.21;53.88;99861.72;4967830;28;98079;-68
2022/11/22 02:38:12;;;;;;;30.65;15.98;;;;;;;4.15;54.24;99864.47;4965742;28;99400;-72
2022/11/22 02:40:44;;;;;;;31.30;16.20;;;;;;;4.12;54.51;99856.72;4969967;28;98792;-69
2022/11/22 02:43:17;;;;;;;32.08;15.95;;;;;;;4.32;53.62;99859.72;4970472;28;96734;-69
2022/11/22 02:45:43;;;;;;;32.40;15.68;;;;;;;4.30;53.42;99851.06;4970087;28;96698;-69
2022/11/22 02:48:12;;;;;;;31.20;16.00;;;;;;;4.31;53.48;99858.00;4968543;28;98965;-69
2022/11/22 02:50:39;;;;;;;33.40;16.40;;;;;;;4.11;53.63;99848.91;4971219;28;98778;-69
2022/11/22 02:53:07;;;;;;;32.47;16.80;;;;;;;4.20;54.09;99843.47;4967151;28;97439;-70
2022/11/22 02:55:34;;;;;;;31.70;16.83;;;;;;;4.35;53.70;99849.19;4969878;28;96799;-71
2022/11/22 02:58:04;;;;;;;28.27;15.57;;;;;;;4.36;53.15;99843.06;4971340;28;98836;-70
2022/11/22 03:00:33;;;;;;;30.30;16.95;;;;;;;4.15;53.79;99851.41;4970965;28;97756;-70
2022/11/22 03:02:59;;;;;;;32.47;17.38;;;;;;;4.19;54.01;99853.06;4968712;28;97051;-69
2022/11/22 03:05:26;;;;;;;31.65;16.73;;;;;;;4.24;53.97;99851.19;4966304;28;96825;-69
2022/11/22 03:07:52;;;;;;;30.05;16.38;;;;;;;4.25;53.73;99845.09;4965108;28;100371;-70
2022/11/22 03:10:19;;;;;;;30.23;15.77;;;;;;;4.09;54.21;99837.63;4968217;28;98174;-69
2022/11/22 03:12:45;;;;;;;27.70;15.52;;;;;;;4.25;53.75;99837.25;4966678;28;96868;-69
2022/11/22 03:15:12;;;;;;;32.00;16.38;;;;;;;4.14;53.74;99834.00;4970734;28;96850;-70
2022/11/22 03:17:40;;;;;;;31.15;16.33;;;;;;;4.07;53.95;99831.59;4964178;28;99219;-69
2022/11/22 03:20:08;;;;;;;32.72;16.90;;;;;;;4.25;53.68;99841.59;4970858;28;99180;-69
2022/11/22 03:22:34;;;;;;;33.03;17.30;;;;;;;4.15;54.19;99835.72;4966282;28;97051;-70
2022/11/22 03:25:01;;;;;;;36.63;17.08;;;;;;;4.36;53.65;99839.56;4972762;28;97904;-70
2022/11/22 03:27:27;;;;;;;32.13;16.83;;;;;;;4.25;53.60;99839.00;4967225;28;98982;-70
2022/11/22 03:29:54;;;;;;;39.00;17.80;;;;;;;4.32;53.56;99838.81;4970136;28;98832;-70
2022/11/22 03:32:20;;;;;;;31.73;16.77;;;;;;;4.35;53.45;99836.09;4960375;28;97758;-69
2022/11/22 03:34:48;;;;;;;32.75;17.20;;;;;;;4.34;53.31;99839.59;4969436;28;96836;-69
2022/11/22 03:37:16;;;;;;;38.10;18.00;;;;;;;4.27;53.26;99840.66;4966318;28;99202;-72
2022/11/22 03:39:42;;;;;;;34.78;17.65;;;;;;;4.05;53.95;99836.84;4972301;28;99299;-69
2022/11/22 03:42:09;;;;;;;33.25;16.38;;;;;;;4.15;54.07;99835.72;4962760;28;97823;-69
2022/11/22 03:44:36;;;;;;;36.10;16.50;;;;;;;4.30;54.19;99835.38;4971602;28;97266;-70
2022/11/22 03:47:02;;;;;;;35.50;18.13;;;;;;;4.01;53.89;99822.97;4964234;28;99523;-69
2022/11/22 03:49:28;;;;;;;37.28;17.33;;;;;;;4.15;54.27;99830.50;4970205;28;98835;-69
2022/11/22 03:51:56;;;;;;;40.88;18.50;;;;;;;4.07;54.25;99821.97;4967136;28;96657;-69
2022/11/22 03:54:22;;;;;;;32.15;17.35;;;;;;;4.17;54.49;99813.03;4971243;28;97002;-70
2022/11/22 03:56:49;;;;;;;35.05;17.63;;;;;;;4.19;54.16;99811.25;4968189;28;99000;-71
2022/11/22 03:59:15;;;;;;;38.22;18.23;;;;;;;4.11;54.36;99809.69;4968651;28;100468;-72
2022/11/22 04:01:41;;;;;;;38.55;18.58;;;;;;;4.24;53.92;99813.72;4969121;28;96867;-69
2022/11/22 04:04:08;;;;;;;39.70;19.05;;;;;;;4.05;54.28;99818.53;4964417;28;97392;-70
2022/11/22 04:06:34;;;;;;;42.92;19.48;;;;;;;4.20;53.93;99810.31;4967068;28;99025;-71
2022/11/22 04:09:02;;;;;;;32.35;17.10;;;;;;;4.29;53.93;99817.94;4964429;28;98822;-70
2022/11/22 04:11:31;;;;;;;38.25;18.58;;;;;;;4.16;54.54;99811.28;4964324;28;96712;-69
2022/11/22 04:16:42;;;;;;;35.78;17.25;;;;;;;4.45;53.66;99805.34;4967841;28;97145;-70
2022/11/22 04:19:08;;;;;;;38.20;18.48;;;;;;;4.45;53.15;99809.72;4965264;28;99150;-70
2022/11/22 04:21:34;;;;;;;39.58;18.58;;;;;;;4.57;53.52;99804.19;4968393;28;96784;-69
2022/11/22 04:26:47;;;;;;;35.53;17.33;;;;;;;4.52;53.70;99800.81;4966804;28;98105;-69
2022/11/22 04:29:14;;;;;;;36.03;17.63;;;;;;;4.62;53.37;99805.75;4967442;28;99326;-69
2022/11/22 04:34:34;;;;;;;38.80;18.33;;;;;;;4.52;53.87;99816.53;4918648;28;96976;-70
2022/11/22 04:37:01;;;;;;;39.10;17.55;;;;;;;4.37;53.72;99820.38;4963472;28;99881;-69
2022/11/22 04:39:28;;;;;;;38.70;17.83;;;;;;;4.36;54.40;99813.41;4971259;28;98951;-69
2022/11/22 04:44:42;;;;;;;38.25;18.42;;;;;;;4.17;54.95;99812.16;4970488;28;96776;-69
2022/11/22 04:47:11;;;;;;;42.90;19.15;;;;;;;4.22;55.04;99802.44;4965793;28;98915;-70
2022/11/22 04:49:38;;;;;;;41.78;19.60;;;;;;;4.25;55.59;99807.59;4969779;28;98816;-69
2022/11/22 04:54:50;;;;;;;41.28;20.67;;;;;;;4.22;55.51;99799.81;4967507;28;96787;-68
2022/11/22 04:57:17;;;;;;;43.08;19.45;;;;;;;4.14;55.66;99789.53;4961325;28;99542;-69
2022/11/22 04:59:43;;;;;;;40.42;18.52;;;;;;;4.31;55.52;99799.59;4967590;28;99123;-69
2022/11/22 05:02:10;;;;;;;45.53;20.13;;;;;;;4.33;54.71;99803.88;4966442;28;96757;-69
2022/11/22 05:04:36;;;;;;;42.13;19.52;;;;;;;4.13;55.54;99793.09;4970566;28;97040;-69
2022/11/22 05:07:02;;;;;;;44.60;19.92;;;;;;;4.08;55.97;99797.53;4968314;28;99338;-69
2022/11/22 05:09:29;;;;;;;43.53;20.20;;;;;;;4.11;56.14;99800.09;4964287;28;97654;-69
2022/11/22 05:11:57;;;;;;;46.97;19.92;;;;;;;4.17;56.16;99802.56;4967652;28;96998;-69
2022/11/22 05:14:23;;;;;;;43.47;19.85;;;;;;;4.02;56.19;99795.06;4966867;28;96900;-69
2022/11/22 05:16:50;;;;;;;41.55;20.23;;;;;;;4.30;55.90;99796.13;4969886;28;98942;-69
2022/11/22 05:19:16;;;;;;;44.63;19.30;;;;;;;4.17;55.88;99789.50;4969301;28;98848;-67
2022/11/22 05:21:43;;;;;;;45.05;20.23;;;;;;;4.50;55.58;99786.91;4971370;28;96812;-71
2022/11/22 05:24:08;;;;;;;40.70;20.33;;;;;;;4.68;55.26;99783.81;4964312;28;98667;-70
2022/11/22 05:26:36;;;;;;;;;;;;;;;4.54;55.15;99783.31;4965817;28;98926;-70
2022/11/22 05:29:06;;;;;;;45.42;20.48;;;;;;;4.53;55.02;99776.38;4964994;28;99249;-70
2022/11/22 05:31:34;;;;;;;44.55;19.30;;;;;;;4.67;54.62;99780.31;4970551;28;96813;-69
2022/11/22 05:34:01;;;;;;;48.13;20.48;;;;;;;4.45;55.67;99780.94;4963777;28;98835;-70
2022/11/22 05:36:31;;;;;;;48.28;21.95;;;;;;;4.64;55.42;99792.66;4971955;28;99258;-70
2022/11/22 05:38:58;;;;;;;47.78;21.10;;;;;;;4.35;56.18;99796.88;4967574;28;99407;-70
2022/11/22 05:41:24;;;;;;;44.95;21.45;;;;;;;4.53;55.72;99795.53;4970295;28;96857;-70
2022/11/22 05:43:51;;;;;;;44.35;19.67;;;;;;;4.64;55.32;99790.03;4964088;28;96822;-71
2022/11/22 05:46:21;;;;;;;50.55;21.63;;;;;;;4.63;55.41;99796.16;4971304;28;99038;-69
2022/11/22 05:48:48;;;;;;;47.83;20.98;;;;;;;4.60;55.53;99788.38;4965224;28;98856;-70
2022/11/22 05:51:19;;;;;;;45.28;20.42;;;;;;;4.78;55.37;99783.53;4971824;28;96857;-69
2022/11/22 05:53:46;;;;;;;46.33;19.88;;;;;;;4.72;55.48;99798.53;4968538;28;96873;-71
2022/11/22 05:56:15;;;;;;;44.08;20.60;;;;;;;4.80;55.20;99793.94;4969478;28;98896;-69
2022/11/22 05:58:42;;;;;;;46.22;20.98;;;;;;;4.78;54.80;99801.00;4972775;28;99302;-71
2022/11/22 06:01:10;;;;;;;49.42;21.98;;;;;;;4.78;54.60;99803.63;4970078;28;96817;-69
2022/11/22 06:03:39;;;;;;;47.05;20.42;;;;;;;4.58;55.92;99805.91;4970512;28;96797;-71
2022/11/22 06:06:08;;;;;;;48.85;21.33;;;;;;;4.79;55.45;99808.78;4972593;28;99343;-69
2022/11/22 06:08:37;;;;;;;45.75;21.08;;;;;;;4.88;54.91;99817.28;4970425;28;100527;-70
2022/11/22 06:11:07;;;;;;;45.20;19.80;;;;;;;4.69;55.51;99824.78;4965930;28;97001;-69
2022/11/22 06:13:35;;;;;;;48.55;21.50;;;;;;;4.98;54.73;99818.78;4965198;28;96953;-69
2022/11/22 06:16:02;;;;;;;47.10;21.58;;;;;;;4.83;55.15;99825.28;4967777;28;99012;-69
2022/11/22 06:18:28;;;;;;;47.00;20.40;;;;;;;4.77;55.39;99822.81;4970116;28;101195;-70
2022/11/22 06:20:58;;;;;;;46.38;20.33;;;;;;;4.99;54.74;99821.34;4973784;28;96662;-70
2022/11/22 06:23:24;;;;;;;46.30;21.05;;;;;;;4.86;54.62;99816.50;4967471;28;96877;-70
2022/11/22 06:26:01;;;;;;;46.33;21.05;;;;;;;4.98;54.99;99816.16;4971209;28;98999;-70
2022/11/22 06:28:30;;;;;;;50.63;20.88;;;;;;;5.11;54.67;99810.53;4968039;28;98996;-69
2022/11/22 06:31:01;;;;;;;45.20;20.08;;;;;;;5.00;54.90;99824.81;4968659;28;96686;-70
2022/11/22 06:33:28;;;;;;;48.15;21.38;;;;;;;4.92;55.32;99829.41;4964597;28;96843;-69
2022/11/22 06:35:54;;;;;;;46.50;20.67;;;;;;;5.07;54.37;99836.84;4969538;28;98895;-69
2022/11/22 06:38:22;;;;;;;48.88;21.52;;;;;;;5.03;54.77;99830.84;4969145;28;99074;-69
2022/11/22 06:40:49;;;;;;;46.55;20.60;;;;;;;5.05;54.17;99833.41;4968405;28;96672;-69
2022/11/22 06:43:15;;;;;;;48.80;20.80;;;;;;;5.10;54.40;99842.88;4971307;28;96906;-70
2022/11/22 06:45:41;;;;;;;44.90;20.70;;;;;;;4.99;54.59;99842.28;4971356;28;99153;-71
2022/11/22 06:48:08;;;;;;;46.95;20.58;;;;;;;4.98;54.91;99848.44;4967224;28;99252;-70
2022/11/22 06:50:34;;;;;;;45.80;20.02;;;;;;;5.08;54.29;99854.28;4970306;28;96847;-70
2022/11/22 06:53:00;;;;;;;43.38;20.42;;;;;;;5.07;54.25;99856.03;4966110;28;98867;-70
2022/11/22 06:55:28;;;;;;;47.13;20.33;;;;;;;5.04;54.36;99848.28;4967667;28;99107;-70
2022/11/22 06:57:55;;;;;;;51.72;20.48;;;;;;;4.98;55.04;99853.69;4968512;28;99198;-70
2022/11/22 07:00:21;;;;;;;47.90;20.08;;;;;;;5.01;55.41;99852.72;4965417;28;97052;-69
2022/11/22 07:02:48;;;;;;;47.53;20.77;;;;;;;5.27;54.24;99841.53;4964903;28;96855;-70
2022/11/22 07:05:14;;;;;;;48.40;20.95;;;;;;;5.05;54.71;99847.38;4967034;28;99642;-70
2022/11/22 07:07:41;;;;;;;44.80;20.77;;;;;;;5.14;54.66;99852.34;4966422;28;98923;-70
2022/11/22 07:10:08;;;;;;;44.40;20.92;;;;;;;5.12;54.64;99846.28;4963113;28;98872;-71
2022/11/22 07:12:36;;;;;;;42.17;19.38;;;;;;;5.29;53.68;99848.44;4962232;28;97685;-71
2022/11/22 07:15:02;;;;;;;43.50;19.92;;;;;;;5.18;54.13;99851.38;4960166;28;99367;-69
2022/11/22 07:17:28;;;;;;;48.03;20.85;;;;;;;5.11;54.46;99851.59;4963633;28;99446;-71
2022/11/22 07:19:55;;;;;;;44.33;19.92;;;;;;;5.10;54.58;99862.94;4969248;28;96798;-71
2022/11/22 07:22:21;;;;;;;49.60;21.02;;;;;;;5.28;54.37;99854.59;4969566;28;97037;-70
2022/11/22 07:24:48;;;;;;;50.05;20.98;;;;;;;5.13;54.32;99865.47;4961436;28;98843;-70
2022/11/22 07:27:14;;;;;;;42.15;19.58;;;;;;;5.05;54.80;99859.59;4969086;28;99083;-71
2022/11/22 07:29:42;;;;;;;42.58;19.58;;;;;;;5.15;54.21;99863.69;4968383;28;96876;-71
2022/11/22 07:32:09;;;;;;;43.85;19.73;;;;;;;4.98;55.23;99864.16;4970429;28;97017;-71
2022/11/22 07:34:36;;;;;;;46.03;19.02;;;;;;;5.35;54.60;99877.09;4969354;28;99027;-69
2022/11/22 07:37:02;;;;;;;41.30;20.08;;;;;;;5.04;54.95;99870.97;4968351;28;99069;-69
2022/11/22 07:39:29;;;;;;;51.55;20.23;;;;;;;5.13;55.04;99876.81;4967152;28;96909;-69
2022/11/22 07:41:55;;;;;;;45.97;19.70;;;;;;;5.18;54.86;99871.47;4969161;28;97372;-69
2022/11/22 07:44:22;;;;;;;47.40;18.63;;;;;;;4.98;56.02;99866.78;4965720;28;99215;-69
2022/11/22 07:46:51;;;;;;;41.40;19.33;;;;;;;5.08;55.36;99867.38;4966744;28;99182;-71
2022/11/22 07:49:18;;;;;;;40.40;18.25;;;;;;;5.04;55.19;99856.13;4968597;28;97186;-70
2022/11/22 07:51:45;;;;;;;42.25;19.40;;;;;;;4.98;55.50;99847.59;4966087;28;96901;-70
2022/11/22 07:54:12;;;;;;;42.67;18.30;;;;;;;5.09;55.05;99843.75;4968792;28;99400;-69
2022/11/22 07:56:38;;;;;;;44.65;18.98;;;;;;;5.00;55.60;99849.22;4968052;28;101314;-70
2022/11/22 07:59:05;;;;;;;40.35;19.60;;;;;;;5.33;54.43;99842.19;4970010;28;96836;-69
2022/11/22 08:01:34;;;;;;;42.75;20.27;;;;;;;5.32;54.86;99834.38;4969122;28;96781;-70
2022/11/22 08:04:02;;;;;;;38.65;18.88;;;;;;;5.16;55.44;99820.88;4967622;28;99263;-70
2022/11/22 08:06:29;;;;;;;46.53;20.58;;;;;;;5.41;54.37;99823.66;4965709;28;98871;-72
2022/11/22 08:08:55;;;;;;;45.63;19.55;;;;;;;5.32;54.77;99822.16;4970294;28;97082;-70
2022/11/22 08:11:22;;;;;;;44.72;19.95;;;;;;;5.35;54.50;99819.44;4963918;28;96738;-71
2022/11/22 08:13:48;;;;;;;47.55;20.45;;;;;;;5.56;54.22;99817.97;4969530;28;99014;-72
2022/11/22 08:16:16;;;;;;;47.78;20.58;;;;;;;5.50;54.54;99819.00;4969073;28;101033;-70
2022/11/22 08:18:47;;;;;;;48.40;21.48;;;;;;;5.32;55.18;99813.44;4968311;28;98145;-72
2022/11/22 08:21:17;;;;;;;46.33;20.20;;;;;;;5.53;54.28;99813.66;4965385;28;97320;-72
2022/11/22 08:23:44;;;;;;;45.17;19.95;;;;;;;5.71;54.00;99817.50;4964111;28;99030;-71
2022/11/22 08:26:15;;;;;;;45.33;20.92;;;;;;;5.86;53.15;99803.06;4965929;28;98921;-73
2022/11/22 08:28:46;;;;;;;45.45;20.90;;;;;;;5.88;53.50;99807.41;4963995;28;97760;-70
2022/11/22 08:31:15;;;;;;;50.42;21.90;;;;;;;5.84;53.29;99803.09;4966392;28;96811;-71
2022/11/22 08:33:42;;;;;;;45.53;20.85;;;;;;;5.77;53.52;99806.84;4970212;28;101308;-70
2022/11/22 08:36:09;;;;;;;40.53;19.10;;;;;;;5.65;53.77;99807.19;4968889;28;97679;-70
2022/11/22 08:38:37;;;;;;;43.30;19.85;;;;;;;5.78;53.59;99800.66;4964439;28;96750;-71
2022/11/22 08:41:06;;;;;;;48.33;21.02;;;;;;;5.56;54.40;99804.88;4963989;28;97181;-69
2022/11/22 08:43:33;;;;;;;42.97;20.27;;;;;;;5.60;54.69;99809.09;4967448;28;98910;-71
2022/11/22 08:46:00;;;;;;;51.70;21.02;;;;;;;5.64;54.60;99813.38;4964810;28;98965;-71
2022/11/22 08:48:28;;;;;;;54.15;21.70;;;;;;;5.49;55.25;99824.28;4968059;28;96744;-69
2022/11/22 08:50:56;;;;;;;49.35;21.40;;;;;;;5.37;54.79;99824.66;4971373;28;96834;-72
2022/11/22 08:53:24;;;;;;;50.13;22.00;;;;;;;5.49;54.97;99834.78;4969193;28;100611;-70
2022/11/22 08:55:52;;;;;;;52.13;20.92;;;;;;;5.43;55.28;99841.06;4967998;28;98744;-69
2022/11/22 08:58:22;;;;;;;48.33;20.52;;;;;;;5.46;55.52;99842.72;4970410;28;96732;-70
2022/11/22 09:00:48;;;;;;;52.97;22.55;;;;;;;5.52;55.30;99855.63;4965381;28;96842;-70
2022/11/22 09:03:15;;;;;;;49.00;21.83;;;;;;;5.44;55.39;99860.25;4956944;28;100417;-70
2022/11/22 09:05:41;;;;;;;48.55;22.25;;;;;;;5.42;55.41;99856.81;4971516;28;99322;-70
2022/11/22 09:08:08;;;;;;;52.30;22.40;;;;;;;5.59;55.02;99859.78;4970756;28;97725;-70
2022/11/22 09:10:34;;;;;;;44.33;21.85;;;;;;;5.63;55.49;99866.69;4970928;28;97347;-70
2022/11/22 09:13:02;;;;;;;55.92;23.15;;;;;;;5.92;54.53;99864.06;4959879;28;99531;-71
2022/11/22 09:15:29;;;;;;;56.90;24.05;;;;;;;5.88;54.59;99870.31;4954371;28;98917;-70
2022/11/22 09:18:01;;;;;;;51.83;22.48;;;;;;;6.04;54.64;99860.19;4964646;28;97470;-70
2022/11/22 09:20:28;;;;;;;51.30;21.98;;;;;;;6.13;54.05;99857.31;4970417;28;96857;-71
2022/11/22 09:22:54;;;;;;;57.20;23.52;;;;;;;6.20;54.01;99858.84;4949811;28;101037;-69
2022/11/22 09:25:21;;;;;;;53.25;23.08;;;;;;;5.93;54.36;99860.53;4944708;28;99021;-71
2022/11/22 09:27:47;;;;;;;50.58;23.15;;;;;;;5.92;55.07;99864.06;4956197;28;98143;-71
2022/11/22 09:30:15;;;;;;;57.75;23.50;;;;;;;5.94;54.92;99864.88;4968704;28;97125;-70
2022/11/22 09:32:43;;;;;;;53.65;23.67;;;;;;;5.93;55.06;99846.56;4968666;28;99166;-70
2022/11/22 09:35:09;;;;;;;51.45;24.13;;;;;;;5.86;55.24;99852.88;4968229;28;98864;-72
2022/11/22 09:37:36;;;;;;;54.83;22.95;;;;;;;5.90;54.98;99857.16;4961799;28;97713;-70
2022/11/22 09:40:02;;;;;;;55.33;23.95;;;;;;;5.92;55.35;99861.44;4970656;28;96747;-71
2022/11/22 09:42:49;;;;;;;51.42;22.20;;;;;;;5.86;55.42;99866.84;4969767;28;98876;-72
2022/11/22 09:45:35;;;;;;;55.80;22.38;;;;;;;5.67;56.00;99876.16;4965639;28;98862;-71
2022/11/22 09:48:13;;;;;;;59.10;23.23;;;;;;;5.81;55.58;99875.75;4961003;28;97084;-72
2022/11/22 09:50:49;;;;;;;50.67;22.17;;;;;;;5.82;55.48;99888.81;4969425;28;98739;-73
2022/11/22 09:53:22;;;;;;;54.45;23.20;;;;;;;6.04;54.87;99888.22;4969668;28;99909;-71
2022/11/22 09:55:52;;;;;;;58.85;24.90;;;;;;;6.11;54.38;99884.47;4964747;28;98811;-70
2022/11/22 09:58:27;;;;;;;56.63;22.90;;;;;;;6.07;54.99;99880.25;4968252;28;97720;-71
2022/11/22 10:01:01;;;;;;;54.35;23.35;;;;;;;6.11;55.37;99887.09;4965225;28;98674;-72
2022/11/22 10:03:33;;;;;;;54.00;23.85;;;;;;;6.39;54.58;99883.56;4967454;28;100770;-70
2022/11/22 10:06:05;;;;;;;56.53;23.45;;;;;;;6.39;54.42;99893.22;4968044;28;99689;-71
2022/11/22 10:08:37;;;;;;;57.92;22.88;;;;;;;6.07;54.83;99888.97;4968474;28;96769;-71
2022/11/22 10:11:23;;;;;;;53.25;23.88;;;;;;;5.82;55.92;99888.81;4971335;28;96856;-72
2022/11/22 10:13:53;;;;;;;56.78;23.42;;;;;;;6.23;54.99;99879.72;4967114;28;100360;-71
2022/11/22 10:16:29;;;;;;;60.10;23.35;;;;;;;6.17;54.96;99885.16;4962117;28;99676;-70
2022/11/22 10:19:00;;;;;;;52.67;22.60;;;;;;;5.98;55.80;99873.50;4971322;28;97314;-70
2022/11/22 10:21:27;;;;;;;59.40;24.33;;;;;;;6.32;55.14;99887.28;4965926;28;98949;-71
2022/11/22 10:23:54;;;;;;;57.97;23.60;;;;;;;6.34;54.87;99882.00;4966294;28;98934;-70
2022/11/22 10:26:24;;;;;;;59.92;23.10;;;;;;;6.37;55.00;99887.13;4968505;28;99153;-70
2022/11/22 10:29:00;;;;;;;58.22;23.55;;;;;;;6.09;56.15;99881.06;4969350;28;96789;-70
2022/11/22 10:31:33;;;;;;;53.95;22.23;;;;;;;6.15;55.66;99873.00;4967218;28;96858;-71
2022/11/22 10:34:06;;;;;;;58.42;24.50;;;;;;;6.19;55.80;99875.47;4963703;28;99085;-70
2022/11/22 10:36:41;;;;;;;55.03;23.02;;;;;;;6.32;55.68;99881.19;4966235;28;100094;-71
2022/11/22 10:39:19;;;;;;;56.28;22.45;;;;;;;6.62;55.20;99888.09;4962679;28;96954;-72
2022/11/22 10:42:15;;;;;;;53.17;22.40;;;;;;;6.57;54.91;99886.50;4961660;28;99278;-71
2022/11/22 10:44:51;;;;;;;53.58;22.60;;;;;;;6.69;54.74;99886.97;4959905;28;100919;-70
2022/11/22 10:47:31;;;;;;;58.13;24.80;;;;;;;6.84;54.17;99892.59;4968204;28;99027;-71
2022/11/22 10:50:05;;;;;;;51.85;22.63;;;;;;;6.51;55.08;99892.81;4962809;28;96847;-71
2022/11/22 10:52:43;;;;;;;56.33;23.88;;;;;;;6.47;55.50;99885.09;4964087;28;96865;-72
2022/11/22 10:55:27;;;;;;;57.00;22.80;;;;;;;6.73;54.97;99887.72;4964922;28;98892;-70
2022/11/22 10:58:03;;;;;;;50.97;21.75;;;;;;;6.56;55.57;99877.78;4961441;28;98796;-70
2022/11/22 11:00:31;;;;;;;;;;;;;;;6.95;54.55;99885.25;4966746;28;97267;-70
2022/11/22 11:03:11;;;;;;;54.45;22.92;;;;;;;7.03;54.41;99891.91;4967217;28;97298;-71
2022/11/22 11:05:43;;;;;;;50.95;22.00;;;;;;;6.99;54.48;99892.94;4961248;28;99008;-73
2022/11/22 11:08:16;;;;;;;55.28;23.42;;;;;;;6.92;54.79;99885.31;4969202;28;98958;-71
2022/11/22 11:10:48;;;;;;;54.63;22.98;;;;;;;6.74;55.23;99887.69;4964647;28;96918;-72
2022/11/22 11:13:21;;;;;;;56.90;23.10;;;;;;;6.83;55.27;99880.41;4969303;28;97971;-71
2022/11/22 11:15:51;;;;;;;59.03;23.73;;;;;;;6.93;54.83;99879.16;4968088;28;98928;-72
2022/11/22 11:18:24;;;;;;;56.72;22.77;;;;;;;7.18;54.32;99880.03;4971797;28;98780;-73
2022/11/22 11:20:52;;;;;;;54.03;23.25;;;;;;;7.33;54.38;99871.59;4962374;28;98748;-71
2022/11/22 11:23:19;;;;;;;54.05;21.95;;;;;;;7.07;54.70;99863.78;4969594;28;98033;-72
2022/11/22 11:25:47;;;;;;;55.75;21.70;;;;;;;7.06;54.84;99864.69;4966954;28;99210;-72
2022/11/22 11:28:19;;;;;;;64.25;25.23;;;;;;;7.20;54.62;99865.94;4967082;28;98853;-70
2022/11/22 11:30:49;;;;;;;49.35;21.65;;;;;;;6.96;55.04;99861.53;4961732;28;98130;-72
2022/11/22 11:33:28;;;;;;;50.92;22.60;;;;;;;6.92;55.71;99856.44;4961017;28;98657;-72
2022/11/22 11:35:57;;;;;;;50.78;22.80;;;;;;;7.00;55.41;99849.16;4964044;28;99460;-71
2022/11/22 11:38:28;;;;;;;51.63;21.95;;;;;;;6.98;55.55;99843.94;4961402;28;98881;-71
2022/11/22 11:40:54;;;;;;;55.30;23.13;;;;;;;7.22;54.75;99857.97;4964250;28;97576;-72
2022/11/22 11:43:22;;;;;;;55.72;21.67;;;;;;;7.06;54.94;99856.81;4965903;28;96898;-72